Time;durP1;ratioP1;P1;durP2;ratioP2;P2;SDS_P1;SDS_P2;PMS_P1;PMS_P2;Temp;Humidity;BMP_temperature;BMP_pressure;BME280_temperature;BME280_humidity;BME280_pressure;Samples;Min_cycle;Max_cycle;Signal;HPM_P1;HPM_P2
2021/05/04 00:02:05;;;;;;;5.00;2.20;;;7.00;99.90;;;;;;5023836;28;20021;-89
2021/05/04 00:04:31;;;;;;;4.17;2.30;;;7.00;99.90;;;;;;5032581;28;20025;-88
2021/05/04 00:06:56;;;;;;;5.57;2.60;;;7.00;99.90;;;;;;5040641;28;20783;-88
2021/05/04 00:09:23;;;;;;;6.15;2.65;;;7.30;99.90;;;;;;5018763;28;20033;-88
2021/05/04 00:11:49;;;;;;;5.18;2.40;;;7.00;99.90;;;;;;5023554;28;20026;-88
2021/05/04 00:14:14;;;;;;;5.85;2.40;;;7.00;99.90;;;;;;5022649;28;20129;-88
2021/05/04 00:16:41;;;;;;;5.25;2.58;;;7.00;99.90;;;;;;5022175;28;20124;-89
2021/05/04 00:19:06;;;;;;;5.63;2.65;;;7.00;99.90;;;;;;5036580;28;20040;-88
2021/05/04 00:21:32;;;;;;;5.70;2.88;;;7.00;99.90;;;;;;5026703;28;20038;-88
2021/05/04 00:23:58;;;;;;;4.97;2.53;;;7.00;99.90;;;;;;5043043;28;20033;-89
2021/05/04 00:26:24;;;;;;;6.72;2.85;;;7.00;99.90;;;;;;5035426;28;20040;-88
2021/05/04 00:28:50;;;;;;;6.40;2.60;;;7.00;99.90;;;;;;5022281;28;20025;-89
2021/05/04 00:31:15;;;;;;;5.00;2.53;;;7.00;99.90;;;;;;5035778;28;20068;-88
2021/05/04 00:33:41;;;;;;;5.85;2.60;;;7.10;99.90;;;;;;5024212;28;20022;-88
2021/05/04 00:36:07;;;;;;;5.00;2.60;;;7.00;99.90;;;;;;5059879;28;20021;-88
2021/05/04 00:38:33;;;;;;;4.25;2.25;;;7.10;99.90;;;;;;5041868;28;20047;-88
2021/05/04 00:40:58;;;;;;;5.60;2.40;;;7.10;99.90;;;;;;5041808;28;20520;-88
2021/05/04 00:43:28;;;;;;;4.75;2.50;;;7.10;99.90;;;;;;5043514;28;20029;-88
2021/05/04 00:45:55;;;;;;;5.38;2.75;;;7.10;99.90;;;;;;5030986;28;20060;-88
2021/05/04 00:48:20;;;;;;;4.13;2.25;;;7.20;99.90;;;;;;5063334;28;20037;-89
2021/05/04 00:50:46;;;;;;;5.63;2.67;;;7.20;99.90;;;;;;5047888;28;20084;-88
2021/05/04 00:53:12;;;;;;;5.75;2.65;;;7.20;99.90;;;;;;5030984;28;20633;-89
2021/05/04 00:55:38;;;;;;;4.70;2.47;;;7.20;99.90;;;;;;5021709;28;20049;-88
2021/05/04 00:58:04;;;;;;;5.13;2.22;;;7.10;99.90;;;;;;5018503;28;20075;-88
2021/05/04 01:00:30;;;;;;;4.00;2.13;;;7.00;99.90;;;;;;5038048;28;20029;-88
2021/05/04 01:02:57;;;;;;;4.32;2.30;;;7.00;99.90;;;;;;5019227;28;20021;-88
2021/05/04 01:05:23;;;;;;;4.15;2.25;;;7.00;99.90;;;;;;5037032;28;20055;-88
2021/05/04 01:07:49;;;;;;;4.97;2.75;;;7.00;99.90;;;;;;5020279;28;20542;-88
2021/05/04 01:10:15;;;;;;;4.63;2.40;;;7.00;99.90;;;;;;5034091;28;20063;-88
2021/05/04 01:12:41;;;;;;;5.55;2.33;;;7.00;99.90;;;;;;5037015;28;20029;-88
2021/05/04 01:15:07;;;;;;;4.43;2.17;;;6.90;99.90;;;;;;5018999;28;20069;-89
2021/05/04 01:17:32;;;;;;;5.32;2.33;;;6.90;99.90;;;;;;5019631;28;20030;-88
2021/05/04 01:19:58;;;;;;;4.07;2.40;;;6.90;99.90;;;;;;5021341;28;20029;-88
2021/05/04 01:22:24;;;;;;;4.93;2.60;;;6.90;99.90;;;;;;5018964;28;20056;-88
2021/05/04 01:24:49;;;;;;;6.65;2.30;;;6.80;99.90;;;;;;5036291;28;20065;-88
2021/05/04 01:27:15;;;;;;;7.75;2.72;;;6.90;99.90;;;;;;5018543;28;20029;-89
2021/05/04 01:29:42;;;;;;;5.20;2.50;;;6.80;99.90;;;;;;5052043;28;20024;-89
2021/05/04 01:32:08;;;;;;;5.93;2.30;;;6.80;99.90;;;;;;5055433;28;20031;-88
2021/05/04 01:34:35;;;;;;;4.75;2.40;;;6.80;99.90;;;;;;5028140;28;20079;-89
2021/05/04 01:37:01;;;;;;;4.70;2.30;;;6.80;99.90;;;;;;5028528;28;20079;-87
2021/05/04 01:39:42;;;;;;;4.18;2.20;;;6.80;99.90;;;;;;5031325;28;20100;-90
2021/05/04 01:42:08;;;;;;;4.67;2.30;;;7.10;99.90;;;;;;5038100;28;20108;-88
2021/05/04 01:44:33;;;;;;;5.00;2.43;;;6.80;99.90;;;;;;5036251;28;20037;-88
2021/05/04 01:46:59;;;;;;;5.13;2.43;;;6.80;99.90;;;;;;5018770;28;20032;-89
2021/05/04 01:49:25;;;;;;;3.85;2.15;;;6.80;99.90;;;;;;5021925;28;20434;-89
2021/05/04 01:51:52;;;;;;;7.47;2.20;;;6.90;99.90;;;;;;5052331;28;20029;-88
2021/05/04 01:54:17;;;;;;;6.95;2.65;;;7.20;99.90;;;;;;5021747;28;20054;-87
2021/05/04 01:56:43;;;;;;;5.10;2.33;;;6.90;99.90;;;;;;5025800;28;20029;-87
2021/05/04 01:59:09;;;;;;;4.82;2.45;;;6.90;99.90;;;;;;5022139;28;20052;-87
2021/05/04 02:01:34;;;;;;;3.87;2.10;;;6.90;99.90;;;;;;5016168;28;20176;-87
2021/05/04 02:04:00;;;;;;;4.20;2.37;;;6.90;99.90;;;;;;5016075;28;20760;-87
2021/05/04 02:06:25;;;;;;;5.27;2.47;;;7.00;99.90;;;;;;5019702;28;20498;-87
2021/05/04 02:08:51;;;;;;;5.53;2.63;;;7.00;99.90;;;;;;5044741;28;20052;-87
2021/05/04 02:11:17;;;;;;;5.37;2.03;;;7.00;99.90;;;;;;5035932;28;20028;-88
2021/05/04 02:13:43;;;;;;;4.47;1.97;;;7.00;99.90;;;;;;5025088;28;20075;-87
2021/05/04 02:16:08;;;;;;;4.07;2.30;;;6.90;99.90;;;;;;5053743;28;20029;-87
2021/05/04 02:18:34;;;;;;;4.45;2.13;;;6.90;99.90;;;;;;5026638;28;20017;-87
2021/05/04 02:21:00;;;;;;;6.03;2.50;;;6.90;99.90;;;;;;5027582;28;20029;-87
2021/05/04 02:23:25;;;;;;;4.60;2.50;;;6.80;99.90;;;;;;5017174;28;20478;-87
2021/05/04 02:25:52;;;;;;;5.10;2.30;;;6.80;99.90;;;;;;5031220;28;20540;-87
2021/05/04 02:28:17;;;;;;;5.20;2.10;;;6.80;99.90;;;;;;5018193;28;20026;-87
2021/05/04 02:30:43;;;;;;;4.13;2.22;;;6.80;99.90;;;;;;5054504;28;20036;-88
2021/05/04 02:33:09;;;;;;;6.78;2.35;;;6.80;99.90;;;;;;5029081;28;20454;-87
2021/05/04 02:35:34;;;;;;;4.83;2.10;;;6.90;99.90;;;;;;5031325;28;20044;-87
2021/05/04 02:38:00;;;;;;;4.97;2.50;;;6.80;99.90;;;;;;5028242;28;20032;-87
2021/05/04 02:40:26;;;;;;;5.03;2.50;;;6.80;99.90;;;;;;5034365;28;20025;-87
2021/05/04 02:42:51;;;;;;;3.77;2.03;;;6.80;99.90;;;;;;5023160;28;20506;-86
2021/05/04 02:45:17;;;;;;;5.07;2.40;;;6.80;99.90;;;;;;5036804;28;20029;-86
2021/05/04 02:47:43;;;;;;;6.77;2.40;;;6.80;99.90;;;;;;5054814;28;20078;-87
2021/05/04 02:50:09;;;;;;;6.33;2.40;;;6.80;99.90;;;;;;5051834;28;20387;-87
2021/05/04 02:52:34;;;;;;;3.72;2.00;;;6.80;99.90;;;;;;5034071;28;20017;-87
2021/05/04 02:55:00;;;;;;;5.50;2.30;;;6.80;99.90;;;;;;5023629;28;20028;-86
2021/05/04 02:57:26;;;;;;;5.77;2.30;;;6.80;99.90;;;;;;5053716;28;20052;-87
2021/05/04 02:59:51;;;;;;;4.23;2.30;;;6.80;99.90;;;;;;5043870;28;20021;-87
2021/05/04 03:02:17;;;;;;;5.30;2.07;;;7.20;99.90;;;;;;5039106;28;20458;-87
2021/05/04 03:04:43;;;;;;;4.53;2.03;;;6.80;99.90;;;;;;5035652;28;20029;-87
2021/05/04 03:07:09;;;;;;;4.90;2.30;;;6.80;99.90;;;;;;5033919;28;20019;-87
2021/05/04 03:09:34;;;;;;;4.37;2.47;;;6.80;99.90;;;;;;5019777;28;20057;-87
2021/05/04 03:12:00;;;;;;;4.20;1.90;;;6.80;99.90;;;;;;5052456;28;20061;-87
2021/05/04 03:14:26;;;;;;;5.88;2.15;;;6.80;99.90;;;;;;5036618;28;20028;-87
2021/05/04 03:16:53;;;;;;;4.67;2.27;;;6.80;99.90;;;;;;5018301;28;20056;-87
2021/05/04 03:19:19;;;;;;;5.23;2.47;;;6.90;99.90;;;;;;5045126;28;20029;-87
2021/05/04 03:21:45;;;;;;;4.20;1.80;;;6.90;99.90;;;;;;5038687;28;20029;-87
2021/05/04 03:24:10;;;;;;;5.33;2.23;;;6.80;99.90;;;;;;5056763;28;20033;-87
2021/05/04 03:26:36;;;;;;;4.60;2.10;;;6.90;99.90;;;;;;5024356;28;20038;-87
2021/05/04 03:29:03;;;;;;;3.87;1.97;;;6.90;99.90;;;;;;5036870;28;20060;-87
2021/05/04 03:31:28;;;;;;;3.80;1.73;;;6.90;99.90;;;;;;5036330;28;20329;-87
2021/05/04 03:33:54;;;;;;;4.53;2.00;;;6.90;99.90;;;;;;5025693;28;20036;-87
2021/05/04 03:36:19;;;;;;;4.97;2.10;;;6.90;99.90;;;;;;5017698;28;20030;-87
2021/05/04 03:38:45;;;;;;;4.33;1.87;;;6.90;99.90;;;;;;5022261;28;20045;-88
2021/05/04 03:41:10;;;;;;;5.30;2.10;;;6.90;99.90;;;;;;5051999;28;20434;-87
2021/05/04 03:43:36;;;;;;;4.30;2.17;;;6.90;99.90;;;;;;5020816;28;20029;-87
2021/05/04 03:46:02;;;;;;;4.00;1.90;;;7.00;99.90;;;;;;5032464;28;20036;-87
2021/05/04 03:48:28;;;;;;;4.80;2.00;;;7.00;99.90;;;;;;5038690;28;20470;-87
2021/05/04 03:50:54;;;;;;;4.27;1.90;;;7.00;99.90;;;;;;5021039;28;20069;-87
2021/05/04 03:53:20;;;;;;;5.60;1.90;;;7.00;99.90;;;;;;5025954;28;20033;-87
2021/05/04 03:55:47;;;;;;;3.23;1.73;;;7.00;99.90;;;;;;5030272;28;20132;-87
2021/05/04 03:58:13;;;;;;;5.23;1.80;;;7.00;99.90;;;;;;5023647;28;20075;-87
2021/05/04 04:00:39;;;;;;;3.50;1.87;;;7.70;99.90;;;;;;5035591;28;20029;-86
2021/05/04 04:03:05;;;;;;;6.20;1.70;;;7.10;99.90;;;;;;5035808;28;20036;-87
2021/05/04 04:05:31;;;;;;;6.30;1.80;;;7.20;99.90;;;;;;5020685;28;20033;-87
2021/05/04 04:07:56;;;;;;;3.40;1.80;;;7.20;99.90;;;;;;5032090;28;20087;-86
2021/05/04 04:10:22;;;;;;;6.60;1.77;;;7.30;99.90;;;;;;5025679;28;20025;-86
2021/05/04 04:12:48;;;;;;;4.90;1.50;;;7.20;99.90;;;;;;5037567;28;20439;-86
2021/05/04 04:15:14;;;;;;;5.07;1.67;;;7.20;99.90;;;;;;5019440;28;20025;-87
2021/05/04 04:17:40;;;;;;;3.42;1.77;;;7.30;99.90;;;;;;5020302;28;20026;-86
2021/05/04 04:20:07;;;;;;;4.63;1.73;;;7.30;99.90;;;;;;5019299;28;20022;-86
2021/05/04 04:22:34;;;;;;;3.53;1.70;;;7.30;99.90;;;;;;5019951;28;20478;-87
2021/05/04 04:25:01;;;;;;;3.53;1.80;;;7.40;99.90;;;;;;5022109;28;20025;-87
2021/05/04 04:27:27;;;;;;;5.93;1.60;;;7.40;99.90;;;;;;5039778;28;20052;-86
2021/05/04 04:29:53;;;;;;;4.83;1.50;;;7.50;99.90;;;;;;5048437;28;20036;-86
2021/05/04 04:32:19;;;;;;;3.53;1.57;;;7.50;99.90;;;;;;5030916;28;20040;-86
2021/05/04 04:34:45;;;;;;;4.77;2.00;;;7.60;99.90;;;;;;5040611;28;20032;-86
2021/05/04 04:37:10;;;;;;;3.37;1.40;;;7.60;99.90;;;;;;5022364;28;20156;-86
2021/05/04 04:39:36;;;;;;;3.90;1.15;;;7.70;99.90;;;;;;5037978;28;20029;-87
2021/05/04 04:42:02;;;;;;;5.25;2.17;;;7.60;99.90;;;;;;5046754;28;20032;-87
2021/05/04 04:44:27;;;;;;;7.00;1.40;;;7.60;99.90;;;;;;5041541;28;20018;-86
2021/05/04 04:46:53;;;;;;;7.07;1.65;;;7.70;99.90;;;;;;5017258;28;20022;-87
2021/05/04 04:49:19;;;;;;;3.30;1.38;;;7.70;99.90;;;;;;5016278;28;20116;-87
2021/05/04 04:51:46;;;;;;;4.47;1.60;;;7.70;99.90;;;;;;5023171;28;20017;-87
2021/05/04 04:54:12;;;;;;;3.38;1.02;;;7.70;99.90;;;;;;5025228;28;20060;-85
2021/05/04 04:56:38;;;;;;;8.23;1.88;;;7.70;99.90;;;;;;5030247;28;20056;-87
2021/05/04 04:59:05;;;;;;;4.38;1.95;;;7.70;99.90;;;;;;5018956;28;20120;-87
2021/05/04 05:01:31;;;;;;;2.83;1.30;;;7.70;99.90;;;;;;5037569;28;20078;-87
2021/05/04 05:03:57;;;;;;;3.13;1.42;;;8.00;99.90;;;;;;5028697;28;20033;-86
2021/05/04 05:06:23;;;;;;;4.53;1.38;;;7.80;99.90;;;;;;5017914;28;20022;-86
2021/05/04 05:08:50;;;;;;;4.30;1.63;;;7.80;99.90;;;;;;5030205;28;20717;-87
2021/05/04 05:11:16;;;;;;;3.00;1.35;;;7.80;99.90;;;;;;5032892;28;20383;-87
2021/05/04 05:13:43;;;;;;;3.63;1.80;;;7.80;99.90;;;;;;5035153;28;20021;-87
2021/05/04 05:16:09;;;;;;;3.75;1.60;;;7.80;99.90;;;;;;5046152;28;20474;-86
2021/05/04 05:18:34;;;;;;;2.83;1.48;;;7.90;99.90;;;;;;5033334;28;20025;-86
2021/05/04 05:21:00;;;;;;;4.43;1.30;;;7.80;99.90;;;;;;5049501;28;20060;-87
2021/05/04 05:23:26;;;;;;;3.85;1.67;;;7.90;99.90;;;;;;5015174;28;20561;-86
2021/05/04 05:25:52;;;;;;;3.83;1.50;;;7.90;99.90;;;;;;5021922;28;20071;-86
2021/05/04 05:28:17;;;;;;;4.80;1.73;;;7.90;99.90;;;;;;5024634;28;20116;-86
2021/05/04 05:30:44;;;;;;;3.25;1.52;;;8.00;99.90;;;;;;5034013;28;20040;-86
2021/05/04 05:33:10;;;;;;;4.22;1.30;;;8.10;99.90;;;;;;5023333;28;20077;-86
2021/05/04 05:35:36;;;;;;;5.57;1.45;;;8.20;99.90;;;;;;5049569;28;20108;-86
2021/05/04 05:38:04;;;;;;;3.50;1.52;;;8.30;99.90;;;;;;5052370;28;20033;-87
2021/05/04 05:40:30;;;;;;;3.45;1.50;;;8.30;99.90;;;;;;5023950;28;20029;-86
2021/05/04 05:42:55;;;;;;;3.55;1.67;;;8.40;99.90;;;;;;5032202;28;20031;-87
2021/05/04 05:45:21;;;;;;;3.65;1.45;;;8.50;99.90;;;;;;5031248;28;20030;-87
2021/05/04 05:47:47;;;;;;;5.05;1.45;;;9.00;99.90;;;;;;5016706;28;20033;-87
2021/05/04 05:50:12;;;;;;;2.85;1.20;;;8.70;99.90;;;;;;5018066;28;20497;-87
2021/05/04 05:52:38;;;;;;;3.40;1.63;;;8.80;99.90;;;;;;5028163;28;20030;-86
2021/05/04 05:55:04;;;;;;;4.00;1.42;;;8.80;99.90;;;;;;5026805;28;20036;-86
2021/05/04 05:57:30;;;;;;;3.90;1.50;;;8.90;99.90;;;;;;5018515;28;20075;-86
2021/05/04 05:59:55;;;;;;;3.97;1.40;;;9.00;99.90;;;;;;5030193;28;20025;-87
2021/05/04 06:02:21;;;;;;;2.25;1.15;;;9.00;99.90;;;;;;5023279;28;20401;-86
2021/05/04 06:04:47;;;;;;;6.15;1.40;;;9.20;99.90;;;;;;5027078;28;20029;-85
2021/05/04 06:07:12;;;;;;;2.45;1.20;;;9.30;99.90;;;;;;5029050;28;20098;-87
2021/05/04 06:09:40;;;;;;;2.55;1.20;;;9.40;99.90;;;;;;5030953;28;20037;-86
2021/05/04 06:12:06;;;;;;;3.38;1.40;;;9.40;99.90;;;;;;5031715;28;20021;-87
2021/05/04 06:14:32;;;;;;;4.07;1.40;;;9.50;99.90;;;;;;5034806;28;20031;-87
2021/05/04 06:16:58;;;;;;;2.80;1.25;;;9.60;99.90;;;;;;5021018;28;20112;-87
2021/05/04 06:19:23;;;;;;;2.70;1.30;;;9.70;99.90;;;;;;5019438;28;20383;-87
2021/05/04 06:21:49;;;;;;;4.90;1.25;;;9.80;99.90;;;;;;5028141;28;20030;-86
2021/05/04 06:24:15;;;;;;;2.78;1.30;;;9.80;99.90;;;;;;5019171;28;20040;-87
2021/05/04 06:26:45;;;;;;;3.25;1.42;;;9.90;99.90;;;;;;5016878;28;20090;-87
2021/05/04 06:29:10;;;;;;;3.97;1.35;;;10.00;99.90;;;;;;5015387;28;20063;-87
2021/05/04 06:31:36;;;;;;;2.75;1.10;;;10.10;99.90;;;;;;5014924;28;20115;-88
2021/05/04 06:34:04;;;;;;;2.17;1.02;;;10.10;99.90;;;;;;5016972;28;20025;-88
2021/05/04 06:36:31;;;;;;;1.90;1.02;;;10.20;99.90;;;;;;5028617;28;20049;-86
2021/05/04 06:38:57;;;;;;;2.80;1.38;;;10.30;99.40;;;;;;5030448;28;20033;-87
2021/05/04 06:41:22;;;;;;;3.85;1.27;;;10.30;99.40;;;;;;5034401;28;20039;-86
2021/05/04 06:43:50;;;;;;;2.80;1.17;;;10.40;99.20;;;;;;5035347;28;20207;-86
2021/05/04 06:46:16;;;;;;;2.70;1.25;;;10.50;98.90;;;;;;5008585;28;20044;-86
2021/05/04 06:48:42;;;;;;;2.50;1.15;;;10.60;99.20;;;;;;5033431;28;20029;-86
2021/05/04 06:51:08;;;;;;;2.88;1.17;;;10.60;98.90;;;;;;5019359;28;20513;-86
2021/05/04 06:53:34;;;;;;;2.90;1.15;;;10.70;97.70;;;;;;5040497;28;20036;-86
2021/05/04 06:56:00;;;;;;;2.85;1.20;;;10.80;98.60;;;;;;5021426;28;20228;-87
2021/05/04 06:58:26;;;;;;;3.00;1.00;;;10.90;98.50;;;;;;5019535;28;20025;-88
2021/05/04 07:00:51;;;;;;;2.08;0.90;;;10.90;97.00;;;;;;5019464;28;20794;-86
2021/05/04 07:03:18;;;;;;;4.10;1.15;;;11.00;97.00;;;;;;5025058;28;20035;-86
2021/05/04 07:05:44;;;;;;;2.85;1.08;;;11.10;96.60;;;;;;5000480;28;20053;-86
2021/05/04 07:08:09;;;;;;;2.35;1.13;;;11.20;96.10;;;;;;5038722;28;20025;-86
2021/05/04 07:10:36;;;;;;;3.05;0.95;;;11.20;94.90;;;;;;5040243;28;20057;-86
2021/05/04 07:13:02;;;;;;;3.55;1.20;;;11.30;94.70;;;;;;5017983;28;20056;-87
2021/05/04 07:15:29;;;;;;;3.10;1.15;;;11.30;95.70;;;;;;5039984;28;20028;-86
2021/05/04 07:17:56;;;;;;;3.08;1.00;;;11.50;95.00;;;;;;5024901;28;20490;-86
2021/05/04 07:20:22;;;;;;;3.80;1.00;;;11.50;94.90;;;;;;5021028;28;20060;-87
2021/05/04 07:22:55;;;;;;;2.33;0.90;;;11.60;94.20;;;;;;5038928;28;20040;-86
2021/05/04 07:25:41;;;;;;;5.45;1.25;;;11.60;94.20;;;;;;5034978;28;20034;-86
2021/05/04 07:28:10;;;;;;;3.78;1.02;;;11.80;93.20;;;;;;5033386;28;20025;-87
2021/05/04 07:30:43;;;;;;;4.55;1.02;;;11.80;93.00;;;;;;5012227;28;20021;-85
2021/05/04 07:33:08;;;;;;;4.38;1.10;;;11.90;92.50;;;;;;5007657;28;20022;-87
2021/05/04 07:35:35;;;;;;;5.47;0.93;;;12.00;93.00;;;;;;5019814;28;20044;-85
2021/05/04 07:38:01;;;;;;;2.40;0.98;;;12.10;92.40;;;;;;5014487;28;20056;-86
2021/05/04 07:40:28;;;;;;;2.08;1.02;;;12.30;92.10;;;;;;5014885;28;20532;-85
2021/05/04 07:42:54;;;;;;;3.22;1.05;;;12.40;91.00;;;;;;5030895;28;20072;-84
2021/05/04 07:45:20;;;;;;;2.60;0.88;;;12.60;90.60;;;;;;5012351;28;20057;-85
2021/05/04 07:47:53;;;;;;;2.03;0.77;;;12.80;89.10;;;;;;5032282;28;20087;-86
2021/05/04 07:50:18;;;;;;;2.20;1.15;;;12.90;87.10;;;;;;5021373;28;20035;-85
2021/05/04 07:52:44;;;;;;;2.40;0.90;;;13.20;86.70;;;;;;5034301;28;20116;-85
2021/05/04 07:55:10;;;;;;;2.60;1.10;;;13.30;85.20;;;;;;5025393;28;20056;-87
2021/05/04 07:57:36;;;;;;;3.00;0.70;;;13.40;85.10;;;;;;5027751;28;20033;-85
2021/05/04 08:00:03;;;;;;;2.15;0.70;;;13.50;84.50;;;;;;5020799;28;20060;-85
2021/05/04 08:02:29;;;;;;;2.92;0.70;;;13.60;83.40;;;;;;5024403;28;20098;-86
2021/05/04 08:04:55;;;;;;;2.50;0.70;;;13.70;79.30;;;;;;5046409;28;20069;-84
2021/05/04 08:07:20;;;;;;;1.23;0.50;;;13.80;78.50;;;;;;5042450;28;20052;-88
2021/05/04 08:09:46;;;;;;;6.05;0.80;;;14.00;78.80;;;;;;5023106;28;20029;-88
2021/05/04 08:12:13;;;;;;;5.28;0.70;;;14.20;77.00;;;;;;5028716;28;20133;-87
2021/05/04 08:14:39;;;;;;;2.70;1.00;;;14.30;75.10;;;;;;5031008;28;20115;-84
2021/05/04 08:17:11;;;;;;;3.33;0.82;;;14.20;74.00;;;;;;5030352;28;20061;-85
2021/05/04 08:19:36;;;;;;;3.95;0.70;;;14.20;74.00;;;;;;5023412;28;20635;-85
2021/05/04 08:22:04;;;;;;;3.42;0.77;;;14.30;74.30;;;;;;5021086;28;20041;-85
2021/05/04 08:24:34;;;;;;;2.38;0.73;;;14.10;72.70;;;;;;5027919;28;20029;-87
2021/05/04 08:27:00;;;;;;;3.00;1.00;;;14.30;73.40;;;;;;5025625;28;20502;-87
2021/05/04 08:29:59;;;;;;;3.58;0.90;;;14.40;72.90;;;;;;5028186;28;20056;-86
2021/05/04 08:32:24;;;;;;;2.65;0.80;;;14.50;71.60;;;;;;5020794;28;20033;-85
2021/05/04 08:34:50;;;;;;;2.88;0.68;;;14.50;70.90;;;;;;5026827;28;20032;-88
2021/05/04 08:37:16;;;;;;;2.53;0.63;;;14.60;70.60;;;;;;5020690;28;20020;-88
2021/05/04 08:39:41;;;;;;;3.17;1.25;;;14.70;71.50;;;;;;5022422;28;20113;-88
2021/05/04 08:42:07;;;;;;;1.98;0.70;;;14.80;70.50;;;;;;5029250;28;20112;-84
2021/05/04 08:44:34;;;;;;;1.55;0.60;;;14.70;68.50;;;;;;5019608;28;20026;-87
2021/05/04 08:47:02;;;;;;;1.67;0.55;;;14.90;68.50;;;;;;5021937;28;20033;-89
2021/05/04 08:49:28;;;;;;;4.57;1.00;;;15.00;68.10;;;;;;5018559;28;20099;-88
2021/05/04 08:51:56;;;;;;;3.58;0.73;;;15.00;67.60;;;;;;5028230;28;20038;-88
2021/05/04 08:54:22;;;;;;;1.60;0.57;;;15.20;69.00;;;;;;5021755;28;20086;-87
2021/05/04 08:56:48;;;;;;;3.60;0.85;;;15.30;66.80;;;;;;5022605;28;20067;-87
2021/05/04 08:59:14;;;;;;;2.80;0.88;;;15.60;67.20;;;;;;5012864;28;20045;-85
2021/05/04 09:01:40;;;;;;;3.55;0.70;;;15.70;67.20;;;;;;5023601;28;20025;-87
2021/05/04 09:04:29;;;;;;;1.40;0.60;;;15.50;66.20;;;;;;5030870;28;20025;-84
2021/05/04 09:07:01;;;;;;;4.18;0.77;;;15.70;66.20;;;;;;5028147;28;20036;-82
2021/05/04 09:09:34;;;;;;;2.15;0.73;;;15.50;65.90;;;;;;5036528;28;20032;-84
2021/05/04 09:12:14;;;;;;;2.53;0.90;;;15.60;65.20;;;;;;5026413;28;20034;-83
2021/05/04 09:17:32;;;;;;;2.13;0.60;;;16.00;65.50;;;;;;5037703;28;20024;-88
2021/05/04 09:22:45;;;;;;;2.88;0.75;;;15.90;64.10;;;;;;5025586;28;20108;-84
2021/05/04 09:25:44;;;;;;;2.10;0.90;;;15.90;64.30;;;;;;5026952;28;20897;-86
2021/05/04 09:28:11;;;;;;;5.65;1.15;;;15.90;63.10;;;;;;5021571;28;20040;-85
2021/05/04 09:30:38;;;;;;;2.22;0.88;;;16.00;63.40;;;;;;5031503;28;20036;-85
2021/05/04 09:33:08;;;;;;;2.58;0.60;;;16.00;61.60;;;;;;5020847;28;20561;-87
2021/05/04 09:35:34;;;;;;;2.45;0.80;;;15.90;62.70;;;;;;5022366;28;20049;-86
2021/05/04 09:38:18;;;;;;;1.77;0.80;;;15.90;63.70;;;;;;5038164;28;20033;-85
2021/05/04 09:40:48;;;;;;;2.30;0.90;;;16.00;63.70;;;;;;5022566;28;20030;-82
2021/05/04 09:43:19;;;;;;;5.50;0.75;;;15.90;63.50;;;;;;5016312;28;20029;-85
2021/05/04 09:46:04;;;;;;;1.42;0.70;;;15.70;63.80;;;;;;5025566;28;20071;-84
2021/05/04 09:48:41;;;;;;;2.70;0.70;;;15.70;63.30;;;;;;5016806;28;20021;-86
2021/05/04 09:51:16;;;;;;;2.88;0.80;;;15.80;61.70;;;;;;5014962;28;20022;-87
2021/05/04 09:56:31;;;;;;;2.47;0.98;;;15.90;62.40;;;;;;5029092;28;20034;-89
2021/05/04 09:58:59;;;;;;;4.05;0.80;;;16.00;62.20;;;;;;5009899;28;20022;-87
2021/05/04 10:01:39;;;;;;;2.15;1.10;;;16.10;62.10;;;;;;5026061;28;20034;-87
2021/05/04 10:04:06;;;;;;;2.70;0.80;;;16.30;61.50;;;;;;5017912;28;20114;-87
2021/05/04 10:06:32;;;;;;;4.45;1.27;;;16.50;62.50;;;;;;5014053;28;20030;-88
2021/05/04 10:08:58;;;;;;;2.97;0.75;;;16.60;62.20;;;;;;5021098;28;20036;-86
2021/05/04 10:11:25;;;;;;;7.95;1.00;;;16.50;60.90;;;;;;5022177;28;20021;-86
2021/05/04 10:13:53;;;;;;;4.25;0.85;;;16.30;60.90;;;;;;5037252;28;20080;-85
2021/05/04 10:16:29;;;;;;;2.50;0.82;;;16.40;60.80;;;;;;5011860;28;20047;-89
2021/05/04 10:19:04;;;;;;;1.52;0.55;;;16.20;64.20;;;;;;5014745;28;20029;-86
2021/05/04 10:21:32;;;;;;;1.75;0.73;;;16.20;62.20;;;;;;5024159;28;20053;-86
2021/05/04 10:23:58;;;;;;;4.28;0.90;;;16.00;60.70;;;;;;5030797;28;20061;-86
2021/05/04 10:26:29;;;;;;;3.15;0.88;;;16.20;60.40;;;;;;5013819;28;20029;-87
2021/05/04 10:29:00;;;;;;;3.08;0.90;;;16.30;59.60;;;;;;5026850;28;20570;-87
2021/05/04 10:31:44;;;;;;;3.03;0.82;;;16.50;60.10;;;;;;5011713;28;20035;-89
2021/05/04 10:34:34;;;;;;;1.80;0.65;;;16.60;60.90;;;;;;5040723;28;20108;-89
2021/05/04 10:37:02;;;;;;;2.33;0.70;;;17.00;59.10;;;;;;5024699;28;20029;-88
2021/05/04 10:39:45;;;;;;;2.95;0.88;;;17.00;59.70;;;;;;5037520;28;20033;-88
2021/05/04 10:42:18;;;;;;;4.35;1.02;;;16.60;58.70;;;;;;5032447;28;20037;-83
2021/05/04 10:44:53;;;;;;;3.08;1.00;;;16.30;59.30;;;;;;5034520;28;20032;-88
2021/05/04 10:47:37;;;;;;;2.97;1.02;;;16.60;60.20;;;;;;5019036;28;20029;-88
2021/05/04 10:50:07;;;;;;;8.35;1.85;;;16.50;59.50;;;;;;5021061;28;20029;-84
2021/05/04 10:52:51;;;;;;;2.05;0.95;;;16.30;61.00;;;;;;5019108;28;20032;-88
2021/05/04 10:55:19;;;;;;;2.47;1.05;;;16.40;61.50;;;;;;5043280;28;20083;-85
2021/05/04 10:58:14;;;;;;;2.25;0.90;;;16.50;61.50;;;;;;5031487;28;20032;-90
2021/05/04 11:00:52;;;;;;;3.75;0.85;;;16.40;61.90;;;;;;5003140;28;20037;-85
2021/05/04 11:03:30;;;;;;;3.78;1.15;;;16.40;58.80;;;;;;5014333;28;20025;-90
2021/05/04 11:05:56;;;;;;;2.17;0.93;;;16.50;60.50;;;;;;5013723;28;20034;-87
2021/05/04 11:08:22;;;;;;;1.73;0.73;;;16.70;60.20;;;;;;5012727;28;20029;-87
2021/05/04 11:11:26;;;;;;;3.72;1.20;;;16.60;60.40;;;;;;5032372;28;20036;-86
2021/05/04 11:13:57;;;;;;;2.67;0.88;;;16.70;59.60;;;;;;5021932;28;20041;-88
2021/05/04 11:16:42;;;;;;;5.57;1.10;;;16.60;60.00;;;;;;5039667;28;20049;-87
2021/05/04 11:19:41;;;;;;;1.42;0.50;;;16.20;60.70;;;;;;5017630;28;20022;-84
2021/05/04 11:22:11;;;;;;;2.60;0.70;;;16.00;59.90;;;;;;5016106;28;20053;-89
2021/05/04 11:24:42;;;;;;;1.77;0.80;;;16.00;60.60;;;;;;5023672;28;20030;-87
2021/05/04 11:27:07;;;;;;;2.28;0.90;;;16.70;60.80;;;;;;5036835;28;20040;-84
2021/05/04 11:29:33;;;;;;;2.85;0.80;;;16.80;61.40;;;;;;5031211;28;20107;-85
2021/05/04 11:32:16;;;;;;;3.15;0.80;;;16.90;60.00;;;;;;5013992;28;20426;-90
2021/05/04 11:34:53;;;;;;;4.45;1.10;;;16.90;60.70;;;;;;5021558;28;20025;-84
2021/05/04 11:37:19;;;;;;;6.38;0.80;;;16.70;60.90;;;;;;5016455;28;20047;-85
2021/05/04 11:39:53;;;;;;;4.05;0.80;;;16.50;60.90;;;;;;5033429;28;20029;-83
2021/05/04 11:42:20;;;;;;;3.15;1.25;;;16.40;59.50;;;;;;5023446;28;20053;-86
2021/05/04 11:44:46;;;;;;;2.88;0.98;;;16.50;58.90;;;;;;5020657;28;20034;-88
2021/05/04 11:47:26;;;;;;;1.90;0.68;;;16.60;58.70;;;;;;5023396;28;20033;-87
2021/05/04 11:50:08;;;;;;;1.40;0.57;;;16.60;58.60;;;;;;5018509;28;20641;-91
2021/05/04 11:52:37;;;;;;;;;;;16.60;59.50;;;;;;5042864;28;20314;-88
2021/05/04 11:55:09;;;;;;;3.42;0.85;;;16.70;59.20;;;;;;5018335;28;19905;-86
2021/05/04 11:57:44;;;;;;;2.50;0.70;;;16.80;60.70;;;;;;5039734;28;20032;-90
2021/05/04 12:00:19;;;;;;;5.65;0.95;;;16.70;59.60;;;;;;5012966;28;20041;-88
2021/05/04 12:02:47;;;;;;;3.28;0.88;;;16.90;59.50;;;;;;5016569;28;20026;-88
2021/05/04 12:05:26;;;;;;;5.30;0.65;;;16.60;59.80;;;;;;5024963;28;20052;-88
2021/05/04 12:08:19;;;;;;;3.78;1.00;;;16.70;60.30;;;;;;5039294;28;20022;-91
2021/05/04 12:10:53;;;;;;;1.90;0.80;;;16.60;60.50;;;;;;5008438;28;20037;-89
2021/05/04 12:13:22;;;;;;;2.45;0.90;;;16.80;60.90;;;;;;5026175;28;20024;-88
2021/05/04 12:15:51;;;;;;;2.75;0.98;;;17.00;60.20;;;;;;5021622;28;20113;-87
2021/05/04 12:18:29;;;;;;;2.13;0.80;;;16.60;59.80;;;;;;5043307;28;20406;-88
2021/05/04 12:21:04;;;;;;;3.97;1.10;;;16.50;60.80;;;;;;5016484;28;20037;-87
2021/05/04 12:23:30;;;;;;;3.50;0.85;;;16.20;60.20;;;;;;5026416;28;20041;-88
2021/05/04 12:26:11;;;;;;;3.00;0.80;;;16.10;61.70;;;;;;5029619;28;20113;-88
2021/05/04 12:28:55;;;;;;;2.28;0.90;;;16.10;62.30;;;;;;5018326;28;20627;-87
2021/05/04 12:31:23;;;;;;;4.60;0.90;;;16.20;63.00;;;;;;5045401;28;20034;-87
2021/05/04 12:33:55;;;;;;;1.92;0.77;;;16.30;63.90;;;;;;5028028;28;20024;-87
2021/05/04 12:36:51;;;;;;;4.53;0.90;;;16.40;63.60;;;;;;5026908;28;20127;-87
2021/05/04 12:39:30;;;;;;;2.72;0.65;;;16.50;64.40;;;;;;5016851;28;20041;-86
2021/05/04 12:41:59;;;;;;;3.55;1.00;;;16.80;63.30;;;;;;5017194;28;20030;-86
2021/05/04 12:44:29;;;;;;;2.67;0.80;;;16.90;62.30;;;;;;5034909;28;20079;-85
2021/05/04 12:46:57;;;;;;;2.65;0.80;;;16.90;64.00;;;;;;5036834;28;20052;-86
2021/05/04 12:49:40;;;;;;;3.08;1.00;;;16.70;65.50;;;;;;5021685;28;20021;-86
2021/05/04 12:52:11;;;;;;;2.40;0.80;;;16.70;66.80;;;;;;5022300;28;20247;-86
2021/05/04 12:54:39;;;;;;;;;;;16.70;67.20;;;;;;5023485;28;20030;-89
2021/05/04 12:57:27;;;;;;;2.67;1.10;;;16.90;68.20;;;;;;5022287;28;19916;-89
2021/05/04 12:59:56;;;;;;;3.95;0.95;;;17.00;67.50;;;;;;5037360;28;20388;-89
2021/05/04 13:02:28;;;;;;;3.72;0.90;;;17.20;67.50;;;;;;5016227;28;20029;-89
2021/05/04 13:07:42;;;;;;;4.57;1.08;;;17.40;67.40;;;;;;5020088;28;20037;-89
2021/05/04 13:13:48;;;;;;;1.90;0.80;;;17.40;67.70;;;;;;5037636;28;20060;-88
2021/05/04 13:30:16;;;;;;;2.47;0.80;;;17.20;63.60;;;;;;5038011;28;20159;-89